ACA718 CYYZ-KLGA
Flight info
| Callsign | ACA718 |
|---|---|
| Flight time | 1h 3m |
| Altitude | 29000 |
| Route | KEPTA3 BMPAH DCT AEVON DCT AUDIL DCT RAHKS VADDR1 |
| Aircraft | A321/M-SDE3FGHIRWY/LB1 |
Departure
| Time | 2026-05-07 21:50 |
|---|---|
| Airport | Toronto Pearson International Airport (CYYZ) |
Arrival
| Time | 2026-05-07 22:53 |
|---|---|
| Airport | LaGuardia Airport (KLGA) |
| Time | Latitude | Longitude | Altitude | Speed | Heading |
|---|---|---|---|---|---|
| 2026-05-07 21:13 | 43.68029 | -79.61422 | 562 ft | 0 kts | 347° |
| 2026-05-07 21:32 | 43.68016 | -79.61418 | 562 ft | 4 kts | 347° |
| 2026-05-07 21:32 | 43.67994 | -79.61411 | 568 ft | 3 kts | 346° |
| 2026-05-07 21:33 | 43.67971 | -79.61398 | 565 ft | 4 kts | 318° |
| 2026-05-07 21:33 | 43.67955 | -79.61370 | 565 ft | 4 kts | 296° |
| 2026-05-07 21:33 | 43.67946 | -79.61348 | 571 ft | 0 kts | 317° |
| 2026-05-07 21:38 | 43.67947 | -79.61350 | 569 ft | 2 kts | 316° |
| 2026-05-07 21:38 | 43.67950 | -79.61371 | 565 ft | 0 kts | 270° |
| 2026-05-07 21:38 | 43.67950 | -79.61375 | 563 ft | 0 kts | 266° |
| 2026-05-07 21:39 | 43.67949 | -79.61379 | 563 ft | 0 kts | 262° |
| 2026-05-07 21:39 | 43.67949 | -79.61383 | 564 ft | 0 kts | 258° |
| 2026-05-07 21:39 | 43.67948 | -79.61386 | 564 ft | 0 kts | 254° |
| 2026-05-07 21:39 | 43.67947 | -79.61388 | 564 ft | 0 kts | 252° |
| 2026-05-07 21:40 | 43.67947 | -79.61389 | 562 ft | 0 kts | 250° |
| 2026-05-07 21:40 | 43.67946 | -79.61391 | 562 ft | 1 kts | 248° |
| 2026-05-07 21:40 | 43.67912 | -79.61424 | 562 ft | 9 kts | 207° |
| 2026-05-07 21:40 | 43.67893 | -79.61439 | 570 ft | 0 kts | 211° |
| 2026-05-07 21:41 | 43.67890 | -79.61442 | 569 ft | 4 kts | 212° |
| 2026-05-07 21:41 | 43.67825 | -79.61536 | 567 ft | 18 kts | 227° |
| 2026-05-07 21:42 | 43.67752 | -79.61640 | 563 ft | 12 kts | 223° |
| 2026-05-07 21:42 | 43.67691 | -79.61670 | 564 ft | 9 kts | 167° |
| 2026-05-07 21:42 | 43.67640 | -79.61684 | 564 ft | 8 kts | 237° |
| 2026-05-07 21:42 | 43.67686 | -79.61796 | 570 ft | 22 kts | 316° |
| 2026-05-07 21:43 | 43.67811 | -79.61960 | 569 ft | 25 kts | 315° |
| 2026-05-07 21:43 | 43.67947 | -79.62086 | 567 ft | 24 kts | 338° |
| 2026-05-07 21:43 | 43.68071 | -79.62230 | 567 ft | 23 kts | 315° |
| 2026-05-07 21:43 | 43.68188 | -79.62382 | 562 ft | 23 kts | 317° |
| 2026-05-07 21:44 | 43.68309 | -79.62526 | 566 ft | 23 kts | 317° |
| 2026-05-07 21:44 | 43.68421 | -79.62677 | 565 ft | 23 kts | 315° |
| 2026-05-07 21:44 | 43.68536 | -79.62825 | 565 ft | 23 kts | 317° |
| 2026-05-07 21:44 | 43.68651 | -79.62973 | 561 ft | 23 kts | 316° |
| 2026-05-07 21:45 | 43.68764 | -79.63124 | 562 ft | 22 kts | 315° |
| 2026-05-07 21:45 | 43.68871 | -79.63261 | 562 ft | 21 kts | 316° |
| 2026-05-07 21:45 | 43.68972 | -79.63396 | 564 ft | 20 kts | 316° |
| 2026-05-07 21:45 | 43.69071 | -79.63519 | 565 ft | 16 kts | 326° |
| 2026-05-07 21:46 | 43.69157 | -79.63474 | 566 ft | 14 kts | 45° |
| 2026-05-07 21:46 | 43.69240 | -79.63423 | 568 ft | 14 kts | 2° |
| 2026-05-07 21:46 | 43.69292 | -79.63420 | 568 ft | 0 kts | 2° |
| 2026-05-07 21:46 | 43.69293 | -79.63420 | 568 ft | 0 kts | 3° |
| 2026-05-07 21:47 | 43.69298 | -79.63420 | 565 ft | 1 kts | 3° |
| 2026-05-07 21:47 | 43.69308 | -79.63419 | 565 ft | 2 kts | 4° |
| 2026-05-07 21:47 | 43.69322 | -79.63418 | 567 ft | 5 kts | 4° |
| 2026-05-07 21:47 | 43.69393 | -79.63457 | 569 ft | 9 kts | 314° |
| 2026-05-07 21:48 | 43.69405 | -79.63526 | 561 ft | 7 kts | 243° |
| 2026-05-07 21:48 | 43.69389 | -79.63548 | 566 ft | 0 kts | 223° |
| 2026-05-07 21:49 | 43.69348 | -79.63603 | 563 ft | 37 kts | 225° |
| 2026-05-07 21:49 | 43.68997 | -79.64115 | 569 ft | 106 kts | 226° |
| 2026-05-07 21:49 | 43.68356 | -79.65049 | 573 ft | 158 kts | 228° |
| 2026-05-07 21:49 | 43.67607 | -79.66192 | 1157 ft | 158 kts | 229° |
| 2026-05-07 21:50 | 43.66905 | -79.67347 | 1870 ft | 158 kts | 234° |
| 2026-05-07 21:50 | 43.66175 | -79.68602 | 2191 ft | 178 kts | 236° |
| 2026-05-07 21:50 | 43.65366 | -79.70005 | 2363 ft | 196 kts | 236° |
| 2026-05-07 21:50 | 43.64478 | -79.71560 | 2489 ft | 215 kts | 234° |
| 2026-05-07 21:51 | 43.63511 | -79.73279 | 2611 ft | 239 kts | 235° |
| 2026-05-07 21:51 | 43.62468 | -79.75140 | 3052 ft | 249 kts | 235° |
| 2026-05-07 21:51 | 43.61405 | -79.77043 | 3657 ft | 252 kts | 235° |
| 2026-05-07 21:51 | 43.60304 | -79.78885 | 4255 ft | 255 kts | 225° |
| 2026-05-07 21:52 | 43.58736 | -79.80074 | 4800 ft | 264 kts | 198° |
| 2026-05-07 21:52 | 43.56888 | -79.80201 | 5370 ft | 272 kts | 171° |
| 2026-05-07 21:52 | 43.55149 | -79.79138 | 5929 ft | 280 kts | 143° |
| 2026-05-07 21:52 | 43.53937 | -79.77037 | 6485 ft | 285 kts | 114° |
| 2026-05-07 21:53 | 43.53411 | -79.74396 | 6992 ft | 288 kts | 102° |
| 2026-05-07 21:53 | 43.53012 | -79.71676 | 7490 ft | 291 kts | 102° |
| 2026-05-07 21:53 | 43.52613 | -79.68933 | 7966 ft | 294 kts | 102° |
| 2026-05-07 21:53 | 43.52210 | -79.66163 | 8435 ft | 296 kts | 102° |
| 2026-05-07 21:54 | 43.51794 | -79.63362 | 8892 ft | 300 kts | 103° |
| 2026-05-07 21:54 | 43.51372 | -79.60544 | 9364 ft | 302 kts | 103° |
| 2026-05-07 21:54 | 43.50943 | -79.57690 | 9810 ft | 305 kts | 103° |
| 2026-05-07 21:54 | 43.50511 | -79.54812 | 10182 ft | 309 kts | 103° |
| 2026-05-07 21:55 | 43.50068 | -79.51867 | 10345 ft | 320 kts | 103° |
| 2026-05-07 21:55 | 43.49608 | -79.48795 | 10494 ft | 338 kts | 103° |
| 2026-05-07 21:55 | 43.49128 | -79.45603 | 10967 ft | 349 kts | 103° |
| 2026-05-07 21:55 | 43.48631 | -79.42299 | 11666 ft | 355 kts | 103° |
| 2026-05-07 21:56 | 43.48127 | -79.38946 | 12396 ft | 360 kts | 103° |
| 2026-05-07 21:56 | 43.47615 | -79.35545 | 13127 ft | 366 kts | 103° |
| 2026-05-07 21:56 | 43.47096 | -79.32096 | 13862 ft | 371 kts | 103° |
| 2026-05-07 21:56 | 43.46790 | -79.30058 | 14223 ft | 373 kts | 103° |
| 2026-05-07 21:57 | 43.46500 | -79.28110 | 14576 ft | 375 kts | 103° |
| 2026-05-07 21:57 | 43.45969 | -79.24576 | 15241 ft | 379 kts | 104° |
| 2026-05-07 21:57 | 43.45426 | -79.21005 | 15883 ft | 383 kts | 104° |
| 2026-05-07 21:57 | 43.44872 | -79.17389 | 16540 ft | 387 kts | 104° |
| 2026-05-07 21:58 | 43.44283 | -79.13768 | 17186 ft | 390 kts | 108° |
| 2026-05-07 21:58 | 43.43367 | -79.10294 | 17814 ft | 391 kts | 117° |
| 2026-05-07 21:58 | 43.42287 | -79.06838 | 18415 ft | 395 kts | 117° |
| 2026-05-07 21:58 | 43.41199 | -79.03346 | 18960 ft | 399 kts | 117° |
| 2026-05-07 21:59 | 43.40103 | -78.99825 | 19498 ft | 403 kts | 117° |
| 2026-05-07 21:59 | 43.38993 | -78.96265 | 20054 ft | 407 kts | 117° |
| 2026-05-07 21:59 | 43.37871 | -78.92669 | 20550 ft | 410 kts | 117° |
| 2026-05-07 21:59 | 43.36742 | -78.89049 | 21049 ft | 414 kts | 117° |
| 2026-05-07 22:00 | 43.35619 | -78.85437 | 21516 ft | 417 kts | 117° |
| 2026-05-07 22:00 | 43.34473 | -78.81757 | 21995 ft | 421 kts | 117° |
| 2026-05-07 22:00 | 43.33311 | -78.78041 | 22436 ft | 424 kts | 118° |
| 2026-05-07 22:00 | 43.32141 | -78.74301 | 22903 ft | 428 kts | 118° |
| 2026-05-07 22:01 | 43.30958 | -78.70536 | 23347 ft | 431 kts | 118° |
| 2026-05-07 22:01 | 43.29764 | -78.66740 | 23741 ft | 435 kts | 118° |
| 2026-05-07 22:01 | 43.28557 | -78.62911 | 24081 ft | 439 kts | 118° |
| 2026-05-07 22:01 | 43.27340 | -78.59055 | 24423 ft | 442 kts | 119° |
| 2026-05-07 22:02 | 43.26112 | -78.55165 | 24759 ft | 446 kts | 119° |
| 2026-05-07 22:02 | 43.24870 | -78.51242 | 25095 ft | 450 kts | 119° |
| 2026-05-07 22:02 | 43.23615 | -78.47289 | 25435 ft | 454 kts | 119° |
| 2026-05-07 22:02 | 43.22366 | -78.43357 | 25764 ft | 458 kts | 120° |
| 2026-05-07 22:03 | 43.21087 | -78.39336 | 26105 ft | 462 kts | 120° |
| 2026-05-07 22:03 | 43.19784 | -78.35293 | 26428 ft | 464 kts | 122° |
| 2026-05-07 22:03 | 43.18209 | -78.31470 | 26744 ft | 460 kts | 131° |
| 2026-05-07 22:03 | 43.16286 | -78.28002 | 27050 ft | 456 kts | 138° |
| 2026-05-07 22:04 | 43.14259 | -78.24633 | 27367 ft | 460 kts | 138° |
| 2026-05-07 22:04 | 43.12220 | -78.21236 | 27686 ft | 464 kts | 138° |
| 2026-05-07 22:04 | 43.10169 | -78.17809 | 28008 ft | 467 kts | 139° |
| 2026-05-07 22:04 | 43.08104 | -78.14353 | 28313 ft | 471 kts | 139° |
| 2026-05-07 22:05 | 43.06026 | -78.10871 | 28623 ft | 474 kts | 139° |
| 2026-05-07 22:05 | 43.03933 | -78.07366 | 28862 ft | 477 kts | 139° |
| 2026-05-07 22:05 | 42.99762 | -78.00391 | 28914 ft | 478 kts | 139° |
| 2026-05-07 22:06 | 42.95484 | -77.93306 | 28925 ft | 488 kts | 137° |
| 2026-05-07 22:06 | 42.93591 | -77.89389 | 28935 ft | 502 kts | 127° |
| 2026-05-07 22:06 | 42.92175 | -77.84968 | 28922 ft | 514 kts | 115° |
| 2026-05-07 22:07 | 42.91322 | -77.80184 | 28938 ft | 524 kts | 103° |
| 2026-05-07 22:07 | 42.91053 | -77.75191 | 28934 ft | 530 kts | 95° |
| 2026-05-07 22:07 | 42.90832 | -77.65135 | 28919 ft | 531 kts | 96° |
| 2026-05-07 22:08 | 42.90573 | -77.55065 | 28905 ft | 531 kts | 96° |
| 2026-05-07 22:08 | 42.90292 | -77.45041 | 28882 ft | 532 kts | 96° |
| 2026-05-07 22:09 | 42.90022 | -77.34955 | 28899 ft | 532 kts | 96° |
| 2026-05-07 22:09 | 42.89751 | -77.24862 | 28889 ft | 533 kts | 96° |
| 2026-05-07 22:10 | 42.89470 | -77.14762 | 28896 ft | 533 kts | 96° |
| 2026-05-07 22:10 | 42.89162 | -77.04658 | 28889 ft | 533 kts | 96° |
| 2026-05-07 22:11 | 42.88845 | -76.94546 | 28899 ft | 534 kts | 96° |
| 2026-05-07 22:11 | 42.88530 | -76.84426 | 28901 ft | 534 kts | 96° |
| 2026-05-07 22:12 | 42.88211 | -76.74301 | 28904 ft | 534 kts | 96° |
| 2026-05-07 22:12 | 42.87877 | -76.64237 | 28896 ft | 534 kts | 97° |
| 2026-05-07 22:13 | 42.87533 | -76.54112 | 28902 ft | 534 kts | 97° |
| 2026-05-07 22:13 | 42.86691 | -76.44123 | 28906 ft | 525 kts | 111° |
| 2026-05-07 22:14 | 42.84117 | -76.35011 | 28901 ft | 512 kts | 123° |
| 2026-05-07 22:14 | 42.81175 | -76.26178 | 28888 ft | 512 kts | 122° |
| 2026-05-07 22:15 | 42.78250 | -76.17333 | 28891 ft | 512 kts | 122° |
| 2026-05-07 22:15 | 42.75314 | -76.08495 | 28880 ft | 512 kts | 122° |
| 2026-05-07 22:16 | 42.72383 | -75.99723 | 28882 ft | 512 kts | 123° |
| 2026-05-07 22:16 | 42.69425 | -75.90919 | 28873 ft | 512 kts | 123° |
| 2026-05-07 22:17 | 42.66459 | -75.82100 | 28873 ft | 512 kts | 123° |
| 2026-05-07 22:17 | 42.63493 | -75.73312 | 28862 ft | 512 kts | 123° |
| 2026-05-07 22:18 | 42.59028 | -75.60136 | 28873 ft | 511 kts | 123° |
| 2026-05-07 22:19 | 42.56050 | -75.51376 | 28862 ft | 512 kts | 123° |
| 2026-05-07 22:19 | 42.53060 | -75.42612 | 28867 ft | 511 kts | 123° |
| 2026-05-07 22:20 | 42.50076 | -75.33867 | 28867 ft | 511 kts | 123° |
| 2026-05-07 22:20 | 42.47071 | -75.25142 | 28879 ft | 511 kts | 123° |
| 2026-05-07 22:21 | 42.44025 | -75.16551 | 28873 ft | 508 kts | 124° |
| 2026-05-07 22:21 | 42.40862 | -75.08003 | 28892 ft | 508 kts | 125° |
| 2026-05-07 22:22 | 42.37685 | -74.99454 | 28884 ft | 507 kts | 124° |
| 2026-05-07 22:22 | 42.35071 | -74.92358 | 28895 ft | 507 kts | 124° |
| 2026-05-07 22:23 | 42.31938 | -74.83831 | 28886 ft | 506 kts | 124° |
| 2026-05-07 22:23 | 42.28802 | -74.75310 | 28887 ft | 506 kts | 124° |
| 2026-05-07 22:24 | 42.25657 | -74.66811 | 28873 ft | 499 kts | 124° |
| 2026-05-07 22:24 | 42.24121 | -74.62668 | 28239 ft | 494 kts | 124° |
| 2026-05-07 22:24 | 42.22586 | -74.58536 | 27623 ft | 488 kts | 124° |
| 2026-05-07 22:24 | 42.21075 | -74.54473 | 27033 ft | 483 kts | 124° |
| 2026-05-07 22:25 | 42.19579 | -74.50455 | 26566 ft | 475 kts | 124° |
| 2026-05-07 22:25 | 42.18120 | -74.46553 | 26081 ft | 468 kts | 124° |
| 2026-05-07 22:25 | 42.16643 | -74.42623 | 25606 ft | 461 kts | 124° |
| 2026-05-07 22:25 | 42.15223 | -74.38840 | 25151 ft | 454 kts | 124° |
| 2026-05-07 22:26 | 42.13810 | -74.35078 | 24689 ft | 447 kts | 124° |
| 2026-05-07 22:26 | 42.12417 | -74.31373 | 24253 ft | 440 kts | 125° |
| 2026-05-07 22:26 | 42.11028 | -74.27741 | 23808 ft | 431 kts | 128° |
| 2026-05-07 22:26 | 42.09434 | -74.24402 | 23343 ft | 420 kts | 133° |
| 2026-05-07 22:27 | 42.07812 | -74.21166 | 22867 ft | 413 kts | 133° |
| 2026-05-07 22:27 | 42.06222 | -74.17979 | 22440 ft | 407 kts | 133° |
| 2026-05-07 22:27 | 42.04657 | -74.14844 | 22000 ft | 400 kts | 133° |
| 2026-05-07 22:27 | 42.03114 | -74.11757 | 21565 ft | 395 kts | 133° |
| 2026-05-07 22:28 | 42.01592 | -74.08718 | 21139 ft | 389 kts | 133° |
| 2026-05-07 22:28 | 42.00064 | -74.05692 | 20690 ft | 400 kts | 133° |
| 2026-05-07 22:28 | 41.98462 | -74.02550 | 20233 ft | 410 kts | 132° |
| 2026-05-07 22:28 | 41.96864 | -73.99397 | 19764 ft | 408 kts | 132° |
| 2026-05-07 22:29 | 41.95279 | -73.96245 | 19290 ft | 403 kts | 131° |
| 2026-05-07 22:29 | 41.93747 | -73.93179 | 18844 ft | 397 kts | 131° |
| 2026-05-07 22:29 | 41.92217 | -73.90117 | 18388 ft | 391 kts | 132° |
| 2026-05-07 22:29 | 41.90638 | -73.87206 | 17903 ft | 378 kts | 140° |
| 2026-05-07 22:30 | 41.88741 | -73.84905 | 17513 ft | 356 kts | 154° |
| 2026-05-07 22:30 | 41.86662 | -73.83298 | 17193 ft | 336 kts | 166° |
| 2026-05-07 22:30 | 41.84509 | -73.82327 | 16840 ft | 318 kts | 177° |
| 2026-05-07 22:30 | 41.82369 | -73.81952 | 16477 ft | 302 kts | 187° |
| 2026-05-07 22:31 | 41.80303 | -73.81981 | 16135 ft | 296 kts | 190° |
| 2026-05-07 22:31 | 41.78175 | -73.82064 | 15806 ft | 313 kts | 190° |
| 2026-05-07 22:31 | 41.76032 | -73.82411 | 15471 ft | 306 kts | 204° |
| 2026-05-07 22:31 | 41.74069 | -73.83350 | 15156 ft | 306 kts | 203° |
| 2026-05-07 22:32 | 41.71902 | -73.83566 | 14828 ft | 320 kts | 184° |
| 2026-05-07 22:32 | 41.69672 | -73.83232 | 14509 ft | 324 kts | 180° |
| 2026-05-07 22:32 | 41.67442 | -73.82770 | 14196 ft | 323 kts | 181° |
| 2026-05-07 22:32 | 41.65236 | -73.82675 | 13734 ft | 312 kts | 193° |
| 2026-05-07 22:33 | 41.63116 | -73.83069 | 13278 ft | 305 kts | 197° |
| 2026-05-07 22:33 | 41.61048 | -73.83558 | 12877 ft | 297 kts | 198° |
| 2026-05-07 22:33 | 41.59044 | -73.84081 | 12493 ft | 291 kts | 199° |
| 2026-05-07 22:33 | 41.57065 | -73.84615 | 12113 ft | 287 kts | 199° |
| 2026-05-07 22:34 | 41.55125 | -73.85138 | 11731 ft | 283 kts | 199° |
| 2026-05-07 22:34 | 41.53206 | -73.85651 | 11364 ft | 280 kts | 198° |
| 2026-05-07 22:34 | 41.51301 | -73.86154 | 10987 ft | 279 kts | 199° |
| 2026-05-07 22:34 | 41.49396 | -73.86651 | 10611 ft | 278 kts | 199° |
| 2026-05-07 22:35 | 41.47497 | -73.87143 | 10262 ft | 277 kts | 198° |
| 2026-05-07 22:35 | 41.45593 | -73.87574 | 10183 ft | 282 kts | 191° |
| 2026-05-07 22:35 | 41.43610 | -73.87419 | 9961 ft | 291 kts | 175° |
| 2026-05-07 22:35 | 41.41682 | -73.86477 | 9491 ft | 300 kts | 157° |
| 2026-05-07 22:36 | 41.39933 | -73.84918 | 8991 ft | 303 kts | 150° |
| 2026-05-07 22:36 | 41.38225 | -73.83346 | 8547 ft | 301 kts | 151° |
| 2026-05-07 22:36 | 41.36503 | -73.81778 | 8149 ft | 301 kts | 151° |
| 2026-05-07 22:36 | 41.34783 | -73.80223 | 7989 ft | 296 kts | 152° |
| 2026-05-07 22:37 | 41.33070 | -73.78682 | 8006 ft | 297 kts | 151° |
| 2026-05-07 22:37 | 41.31365 | -73.77144 | 8006 ft | 297 kts | 151° |
| 2026-05-07 22:37 | 41.29654 | -73.75600 | 8010 ft | 297 kts | 151° |
| 2026-05-07 22:37 | 41.27943 | -73.74054 | 8011 ft | 298 kts | 151° |
| 2026-05-07 22:38 | 41.26229 | -73.72500 | 8010 ft | 297 kts | 151° |
| 2026-05-07 22:38 | 41.24517 | -73.70954 | 8014 ft | 297 kts | 151° |
| 2026-05-07 22:38 | 41.22811 | -73.69416 | 8010 ft | 298 kts | 151° |
| 2026-05-07 22:38 | 41.21100 | -73.67870 | 8013 ft | 298 kts | 151° |
| 2026-05-07 22:39 | 41.19385 | -73.66327 | 8013 ft | 298 kts | 151° |
| 2026-05-07 22:39 | 41.17674 | -73.64786 | 8013 ft | 297 kts | 151° |
| 2026-05-07 22:39 | 41.15963 | -73.63245 | 8012 ft | 298 kts | 151° |
| 2026-05-07 22:39 | 41.14215 | -73.61787 | 8013 ft | 294 kts | 161° |
| 2026-05-07 22:40 | 41.12325 | -73.61038 | 8017 ft | 283 kts | 179° |
| 2026-05-07 22:40 | 41.10407 | -73.61087 | 8011 ft | 273 kts | 197° |
| 2026-05-07 22:40 | 41.08640 | -73.61866 | 8011 ft | 265 kts | 213° |
| 2026-05-07 22:40 | 41.07081 | -73.63137 | 8011 ft | 263 kts | 218° |
| 2026-05-07 22:41 | 41.05532 | -73.64431 | 8015 ft | 263 kts | 217° |
| 2026-05-07 22:41 | 41.03980 | -73.65716 | 8017 ft | 263 kts | 217° |
| 2026-05-07 22:41 | 41.02433 | -73.66989 | 7952 ft | 260 kts | 217° |
| 2026-05-07 22:41 | 41.00901 | -73.68247 | 7495 ft | 259 kts | 217° |
| 2026-05-07 22:42 | 40.99373 | -73.69509 | 7024 ft | 259 kts | 217° |
| 2026-05-07 22:42 | 40.97846 | -73.70776 | 6577 ft | 259 kts | 216° |
| 2026-05-07 22:42 | 40.96320 | -73.72043 | 6122 ft | 259 kts | 216° |
| 2026-05-07 22:42 | 40.94789 | -73.73312 | 5672 ft | 259 kts | 216° |
| 2026-05-07 22:43 | 40.93271 | -73.74571 | 5429 ft | 257 kts | 216° |
| 2026-05-07 22:43 | 40.91752 | -73.75829 | 5300 ft | 258 kts | 216° |
| 2026-05-07 22:43 | 40.90226 | -73.77090 | 5167 ft | 258 kts | 216° |
| 2026-05-07 22:43 | 40.88698 | -73.78347 | 5041 ft | 258 kts | 216° |
| 2026-05-07 22:44 | 40.87202 | -73.79575 | 4914 ft | 257 kts | 216° |
| 2026-05-07 22:44 | 40.85688 | -73.80821 | 4787 ft | 256 kts | 216° |
| 2026-05-07 22:44 | 40.84178 | -73.82067 | 4666 ft | 256 kts | 216° |
| 2026-05-07 22:44 | 40.82665 | -73.83314 | 4539 ft | 256 kts | 216° |
| 2026-05-07 22:45 | 40.81157 | -73.84551 | 4399 ft | 254 kts | 216° |
| 2026-05-07 22:45 | 40.79653 | -73.85777 | 4276 ft | 254 kts | 216° |
| 2026-05-07 22:45 | 40.78149 | -73.86999 | 4146 ft | 253 kts | 215° |
| 2026-05-07 22:45 | 40.76647 | -73.88217 | 4005 ft | 252 kts | 216° |
| 2026-05-07 22:46 | 40.75164 | -73.89419 | 3599 ft | 250 kts | 215° |
| 2026-05-07 22:46 | 40.73705 | -73.90651 | 3181 ft | 247 kts | 221° |
| 2026-05-07 22:46 | 40.72410 | -73.92119 | 2736 ft | 244 kts | 229° |
| 2026-05-07 22:46 | 40.71315 | -73.93805 | 2356 ft | 241 kts | 233° |
| 2026-05-07 22:47 | 40.70290 | -73.95538 | 2222 ft | 236 kts | 234° |
| 2026-05-07 22:47 | 40.69187 | -73.97018 | 2226 ft | 222 kts | 213° |
| 2026-05-07 22:47 | 40.67732 | -73.97491 | 2222 ft | 215 kts | 179° |
| 2026-05-07 22:47 | 40.66374 | -73.96782 | 2235 ft | 209 kts | 146° |
| 2026-05-07 22:48 | 40.65394 | -73.95415 | 2237 ft | 205 kts | 127° |
| 2026-05-07 22:48 | 40.64965 | -73.93682 | 2224 ft | 199 kts | 95° |
| 2026-05-07 22:48 | 40.65239 | -73.91935 | 2227 ft | 195 kts | 61° |
| 2026-05-07 22:48 | 40.66102 | -73.90620 | 2225 ft | 188 kts | 29° |
| 2026-05-07 22:49 | 40.67285 | -73.90025 | 2223 ft | 179 kts | 359° |
| 2026-05-07 22:49 | 40.68470 | -73.90157 | 2217 ft | 171 kts | 340° |
| 2026-05-07 22:49 | 40.69604 | -73.90465 | 2233 ft | 157 kts | 341° |
| 2026-05-07 22:49 | 40.70648 | -73.90670 | 2184 ft | 152 kts | 354° |
| 2026-05-07 22:50 | 40.71658 | -73.90191 | 2189 ft | 161 kts | 31° |
| 2026-05-07 22:50 | 40.72325 | -73.88991 | 2038 ft | 166 kts | 67° |
| 2026-05-07 22:50 | 40.72501 | -73.87517 | 1753 ft | 162 kts | 93° |
| 2026-05-07 22:50 | 40.72489 | -73.86041 | 1469 ft | 160 kts | 89° |
| 2026-05-07 22:51 | 40.72762 | -73.84642 | 1353 ft | 159 kts | 65° |
| 2026-05-07 22:51 | 40.73499 | -73.83606 | 1154 ft | 154 kts | 18° |
| 2026-05-07 22:51 | 40.74495 | -73.83457 | 1029 ft | 143 kts | 348° |
| 2026-05-07 22:51 | 40.75497 | -73.83565 | 729 ft | 143 kts | 348° |
| 2026-05-07 22:52 | 40.76366 | -73.84015 | 487 ft | 131 kts | 313° |
| 2026-05-07 22:52 | 40.76878 | -73.85013 | 214 ft | 132 kts | 303° |
| 2026-05-07 22:52 | 40.77352 | -73.86009 | 20 ft | 125 kts | 304° |
| 2026-05-07 22:52 | 40.77745 | -73.86832 | 14 ft | 80 kts | 302° |
| 2026-05-07 22:53 | 40.77917 | -73.87212 | 15 ft | 22 kts | 281° |
| 2026-05-07 22:53 | 40.77888 | -73.87347 | 14 ft | 14 kts | 240° |
| 2026-05-07 22:53 | 40.77811 | -73.87402 | 14 ft | 12 kts | 178° |
| 2026-05-07 22:53 | 40.77774 | -73.87348 | 17 ft | 7 kts | 97° |
| 2026-05-07 22:54 | 40.77766 | -73.87289 | 16 ft | 6 kts | 117° |
| 2026-05-07 22:54 | 40.77751 | -73.87273 | 18 ft | 0 kts | 153° |
| 2026-05-07 22:54 | 40.77740 | -73.87269 | 18 ft | 7 kts | 161° |
| 2026-05-07 22:55 | 40.77678 | -73.87252 | 20 ft | 7 kts | 176° |
| 2026-05-07 22:55 | 40.77632 | -73.87248 | 20 ft | 4 kts | 176° |
| 2026-05-07 22:55 | 40.77622 | -73.87247 | 20 ft | 0 kts | 176° |